Border Field (334) Station Data

Red Flag Warning: No
Fire Weather Zone: 243
SDGE Region: Metro
Lat/Lon: 32.542/-117.097

Observations

Time Wind Speed/Gust Temp(F) RH Fuel Moist Fuel Temp(F) Dewpt(F) Tmax(F) Tmin(F) Accum Precip 10-min Precip SL Press(mb)
6/27 5:00pm 274 9 G 13 68° 80% - - 61° 74.6° 62.8° - - -
6/27 4:50pm 270 9 G 12 68° 77% - - 61° 74.6° 62.8° - - -
6/27 4:40pm 274 8 G 13 69° 75% - - 61° 74.6° 62.8° - - -
6/27 4:30pm 281 7 G 12 70° 73% - - 61° 74.6° 62.8° - - -
6/27 4:20pm 282 9 G 13 70° 72% - - 60° 74.6° 62.8° - - -
6/27 4:10pm 278 8 G 12 70° 74% - - 61° 74.6° 62.8° - - -
6/27 4:00pm 284 8 G 11 70° 76% - - 62° 74.6° 62.8° - - -
6/27 3:50pm 273 8 G 12 70° 76% - - 62° 74.6° 62.8° - - -
6/27 3:40pm 271 8 G 12 70° 78% - - 63° 74.6° 62.8° - - -
6/27 3:30pm 284 8 G 12 70° 79% - - 63° 74.6° 62.8° - - -
6/27 3:20pm 276 8 G 13 70° 79% - - 63° 74.6° 62.8° - - -
6/27 3:10pm 289 9 G 13 70° 80% - - 63° 74.6° 62.8° - - -
6/27 3:00pm 274 9 G 13 70° 78% - - 63° 74.6° 62.8° - - -
6/27 2:50pm 255 9 G 16 70° 78% - - 63° 74.6° 62.8° - - -
6/27 2:40pm 252 10 G 14 70° 77% - - 63° 74.6° 62.8° - - -
6/27 2:30pm 255 11 G 15 70° 79% - - 63° 74.6° 62.8° - - -
6/27 2:20pm 250 11 G 15 70° 79% - - 63° 74.6° 62.8° - - -
6/27 2:10pm 246 11 G 14 69° 80% - - 63° 74.6° 62.8° - - -
6/27 2:00pm 254 12 G 15 69° 81% - - 63° 74.6° 62.8° - - -
6/27 1:50pm 251 12 G 16 69° 81% - - 63° 74.6° 62.8° - - -
6/27 1:40pm 248 12 G 15 69° 81% - - 63° 74.6° 62.8° - - -
6/27 1:30pm 249 12 G 16 70° 81% - - 63° 74.6° 62.8° - - -
6/27 1:20pm 249 12 G 16 70° 81% - - 64° 74.6° 62.8° - - -
6/27 1:10pm 252 12 G 16 70° 81% - - 64° 74.6° 62.8° - - -
6/27 1:00pm 253 12 G 15 70° 81% - - 64° 74.6° 62.8° - - -
6/27 12:50pm 249 12 G 15 70° 81% - - 64° 74.6° 62.8° - - -
6/27 12:40pm 255 11 G 15 70° 81% - - 64° 74.6° 62.8° - - -
6/27 12:30pm 255 10 G 14 70° 80% - - 64° 74.6° 62.8° - - -
6/27 12:10pm 253 11 G 14 70° 80% - - 64° 74.6° 62.8° - - -
6/27 12:00pm 251 11 G 16 70° 80% - - 64° 74.6° 62.8° - - -
6/27 11:50am 253 11 G 14 70° 80% - - 63° 74.6° 62.8° - - -
6/27 11:40am 254 11 G 14 70° 81% - - 64° 74.6° 62.8° - - -
6/27 11:20am 253 10 G 13 70° 81% - - 63° 74.6° 62.8° - - -
6/27 11:10am 253 11 G 14 70° 81% - - 63° 74.6° 62.8° - - -
6/27 11:00am 256 10 G 13 70° 81% - - 64° 74.6° 62.8° - - -
6/27 10:50am 254 10 G 13 70° 81% - - 63° 74.6° 62.8° - - -
6/27 10:40am 251 8 G 11 70° 80% - - 63° 74.6° 62.8° - - -
6/27 10:30am 264 8 G 11 70° 80% - - 63° 74.6° 62.8° - - -
6/27 10:20am 254 8 G 11 70° 79% - - 63° 74.6° 62.8° - - -
6/27 10:10am 252 8 G 11 70° 77% - - 62° 74.6° 62.8° - - -
6/27 10:00am 255 8 G 12 70° 78% - - 62° 74.6° 62.8° - - -
6/27 9:50am 253 9 G 13 69° 79% - - 62° 74.6° 62.8° - - -
6/27 9:40am 251 9 G 13 69° 79% - - 62° 74.6° 62.8° - - -
6/27 9:30am 252 9 G 12 69° 78% - - 62° 74.6° 62.8° - - -
6/27 9:20am 252 10 G 14 69° 78% - - 62° 74.6° 62.8° - - -
6/27 9:10am 253 8 G 12 69° 83% - - 64° 74.6° 62.8° - - -
6/27 9:00am 251 8 G 11 68° 85% - - 64° 74.6° 62.8° - - -
6/27 8:50am 258 7 G 10 68° 85% - - 64° 74.6° 62.8° - - -
6/27 8:40am 252 7 G 10 69° 83% - - 64° 74.6° 62.8° - - -
6/27 8:30am 295 4 G 5 71° 78% - - 63° 74.6° 62.8° - - -
6/27 8:20am 357 2 G 3 71° 79% - - 64° 74.6° 62.8° - - -
6/27 8:10am 5 2 G 3 69° 83% - - 64° 74.6° 62.8° - - -
6/27 8:00am 349 3 G 4 69° 86% - - 64° 74.6° 62.8° - - -
6/27 7:40am 21 3 G 4 68° 89% - - 64° 74.6° 62.8° - - -
6/27 7:30am 26 3 G 5 67° 90% - - 64° 74.6° 62.8° - - -
6/27 7:20am 52 3 G 4 67° 91% - - 64° 74.6° 62.8° - - -
6/27 7:10am 50 3 G 4 66° 93% - - 64° 74.6° 62.8° - - -
6/27 7:00am 57 2 G 3 66° 95% - - 64° 74.6° 62.8° - - -
6/27 6:50am 61 2 G 3 65° 97% - - 64° 74.6° 62.8° - - -
6/27 6:40am 78 1 G 2 64° 97% - - 64° 74.6° 62.8° - - -
6/27 6:30am 130 1 G 1 64° 97% - - 63° 74.6° 62.8° - - -
6/27 6:20am 185 1 G 1 64° 97% - - 63° 74.6° 62.8° - - -
6/27 6:10am 297 1 G 3 64° 97% - - 63° 74.6° 62.8° - - -
6/27 6:00am 306 1 G 3 64° 97% - - 63° 74.6° 62.8° - - -
6/27 5:50am 312 2 G 4 64° 97% - - 63° 74.6° 62.8° - - -
6/27 5:40am 226 1 G 2 63° 97% - - 62° 74.6° 62.8° - - -
6/27 5:30am 208 2 G 2 63° 96% - - 62° 74.6° 63° - - -
6/27 5:20am 210 2 G 3 63° 96% - - 62° 74.6° 63.1° - - -
6/27 5:10am 220 3 G 4 64° 95% - - 62° 74.6° 63.3° - - -
6/27 5:00am 235 3 G 4 64° 94% - - 62° 74.6° 63.6° - - -
6/27 4:50am 241 4 G 4 64° 93% - - 62° 74.6° 63.7° - - -
6/27 4:40am 228 4 G 5 64° 93% - - 62° 74.6° 63.7° - - -
6/27 4:30am 233 5 G 5 64° 92% - - 62° 74.6° 63.7° - - -
6/27 4:20am 240 5 G 6 65° 87% - - 61° 74.6° 64.3° - - -
6/27 4:10am 226 3 G 5 66° 85% - - 61° 74.6° 65° - - -
6/27 4:00am 228 4 G 5 66° 82% - - 61° 74.6° 65° - - -
6/27 3:50am 230 4 G 5 67° 80% - - 61° 74.6° 65° - - -
6/27 3:40am 222 4 G 5 66° 87% - - 62° 74.6° 65° - - -
6/27 3:30am 226 4 G 5 66° 89% - - 62° 74.6° 65° - - -
6/27 3:20am 228 3 G 5 66° 86% - - 62° 74.6° 65° - - -
6/27 3:10am 304 0 G 1 67° 86% - - 62° 74.6° 65° - - -
6/27 3:00am 5 1 G 2 68° 81% - - 62° 74.6° 65° - - -
6/27 2:50am 292 1 G 1 69° 78% - - 62° 74.6° 65° - - -
6/27 2:40am 0 0 G 0 69° 78% - - 62° 74.6° 65° - - -
6/27 2:30am 197 0 G 2 68° 81% - - 62° 74.6° 65° - - -
6/27 2:20am 189 3 G 4 66° 89% - - 63° 74.6° 65° - - -
6/27 2:10am 229 2 G 2 66° 91% - - 63° 74.6° 65° - - -
6/27 2:00am 244 2 G 2 66° 91% - - 63° 74.6° 65° - - -
6/27 1:50am 238 1 G 2 67° 87% - - 63° 74.6° 65° - - -
6/27 1:40am 247 1 G 2 68° 77% - - 61° 74.6° 65° - - -
6/27 1:30am 207 2 G 3 68° 81% - - 62° 74.6° 65° - - -
6/27 1:20am 193 3 G 4 67° 84% - - 62° 74.6° 65° - - -
6/27 1:10am 206 3 G 5 66° 89% - - 63° 74.6° 65° - - -
6/27 1:00am 230 4 G 5 66° 89% - - 62° 74.6° 65° - - -
6/27 12:50am 256 4 G 5 69° 79% - - 62° 74.6° 66.1° - - -
6/27 12:40am 251 3 G 4 69° 76% - - 61° 74.6° 68.2° - - -
6/27 12:30am 240 2 G 4 71° 72% - - 61° 74.6° 68.4° - - -
6/27 12:20am 344 0 G 1 73° 69% - - 63° 74.6° 72.3° - - -
6/27 12:10am 77 3 G 5 74° 68% - - 63° 74.6° 73.6° - - -
6/27 12:00am 88 4 G 6 74° 68% - - 63° 75.2° 61.7° - - -
6/26 11:50pm 85 4 G 8 74° 67% - - 63° 75.2° 61.7° - - -
6/26 11:40pm 93 4 G 6 74° 67% - - 62° 75.2° 61.7° - - -
6/26 11:30pm 104 4 G 8 73° 69% - - 62° 75.2° 61.7° - - -
6/26 11:20pm 127 6 G 9 71° 74% - - 63° 75.2° 61.7° - - -
6/26 11:10pm 119 7 G 8 70° 80% - - 63° 75.2° 61.7° - - -
6/26 11:00pm 105 4 G 7 68° 84% - - 63° 75.2° 61.7° - - -
6/26 10:50pm 92 4 G 4 69° 82% - - 63° 75.2° 61.7° - - -
6/26 10:40pm 75 3 G 4 68° 83% - - 63° 75.2° 61.7° - - -
6/26 10:30pm 98 1 G 2 67° 86% - - 63° 75.2° 61.7° - - -
6/26 10:20pm 79 1 G 2 66° 91% - - 63° 75.2° 61.7° - - -
6/26 10:10pm 294 1 G 2 66° 93% - - 64° 75.2° 61.7° - - -
6/26 10:00pm 270 3 G 4 66° 93% - - 64° 75.2° 61.7° - - -
6/26 9:50pm 279 4 G 5 66° 93% - - 64° 75.2° 61.7° - - -
6/26 9:40pm 284 4 G 5 67° 91% - - 64° 75.2° 61.7° - - -
6/26 9:30pm 307 2 G 4 68° 89% - - 64° 75.2° 61.7° - - -
6/26 9:20pm 359 1 G 1 68° 88% - - 64° 75.2° 61.7° - - -
6/26 9:10pm 354 1 G 2 68° 86% - - 64° 75.2° 61.7° - - -
6/26 9:00pm 40 1 G 2 69° 80% - - 62° 75.2° 61.7° - - -
6/26 8:50pm 35 2 G 2 69° 75% - - 61° 75.2° 61.7° - - -
6/26 8:40pm 70 1 G 2 69° 72% - - 60° 75.2° 61.7° - - -
6/26 8:30pm 13 0 G 1 70° 72% - - 60° 75.2° 61.7° - - -
6/26 8:20pm 276 0 G 1 70° 71% - - 60° 75.2° 61.7° - - -
6/26 8:10pm 247 1 G 2 69° 77% - - 62° 75.2° 61.7° - - -
6/26 8:00pm 230 2 G 3 69° 82% - - 64° 75.2° 61.7° - - -
6/26 7:50pm 237 3 G 4 70° 80% - - 64° 75.2° 61.7° - - -
6/26 7:40pm 241 3 G 4 70° 81% - - 64° 75.2° 61.7° - - -
6/26 7:30pm 244 4 G 5 70° 81% - - 64° 75.2° 61.7° - - -
6/26 7:20pm 248 4 G 5 70° 81% - - 64° 75.2° 61.7° - - -
6/26 7:10pm 250 5 G 6 70° 79% - - 63° 75.2° 61.7° - - -
6/26 7:00pm 247 5 G 7 71° 76% - - 63° 75.2° 61.7° - - -
6/26 6:50pm 261 6 G 7 71° 74% - - 62° 75.2° 61.7° - - -
6/26 6:40pm 262 6 G 8 71° 74% - - 63° 75.2° 61.7° - - -
6/26 6:30pm 257 6 G 8 72° 72% - - 62° 75.2° 61.7° - - -
6/26 6:20pm 259 7 G 9 73° 66% - - 61° 75.2° 61.7° - - -
6/26 6:10pm 251 7 G 10 73° 67% - - 61° 75.2° 61.7° - - -
6/26 6:00pm 258 6 G 9 73° 65% - - 61° 75.2° 61.7° - - -
6/26 5:50pm 253 6 G 10 73° 65% - - 61° 75.2° 61.7° - - -
6/26 5:40pm 259 7 G 9 73° 66% - - 62° 75.2° 61.7° - - -
6/26 5:30pm 255 7 G 10 73° 66% - - 62° 75.2° 61.7° - - -
6/26 5:20pm 256 7 G 11 73° 66% - - 61° 75.2° 61.7° - - -
6/26 5:10pm 263 8 G 11 73° 65% - - 61° 75.2° 61.7° - - -
6/26 5:00pm 258 7 G 11 74° 64% - - 61° 75.2° 61.7° - - -
6/26 4:50pm 257 8 G 11 74° 63% - - 61° 75.2° 61.7° - - -
6/26 4:40pm 254 9 G 12 74° 63% - - 61° 75.2° 61.7° - - -
6/26 4:30pm 261 8 G 12 74° 63% - - 61° 75.1° 61.7° - - -
6/26 4:20pm 252 9 G 11 74° 64% - - 61° 75° 61.7° - - -
6/26 4:10pm 252 9 G 12 74° 65% - - 61° 75° 61.7° - - -
6/26 4:00pm 257 9 G 11 74° 65% - - 62° 75° 61.7° - - -
6/26 3:50pm 254 9 G 12 73° 68% - - 62° 75° 61.7° - - -
6/26 3:40pm 251 9 G 12 73° 68% - - 62° 75° 61.7° - - -
6/26 3:30pm 254 9 G 11 73° 68% - - 62° 75° 61.7° - - -
6/26 3:20pm 257 9 G 11 73° 70% - - 62° 75° 61.7° - - -
6/26 3:10pm 255 8 G 11 73° 70% - - 63° 75° 61.7° - - -
6/26 3:00pm 252 9 G 12 72° 72% - - 63° 75° 61.7° - - -
6/26 2:50pm 257 9 G 12 72° 73% - - 63° 75° 61.7° - - -
6/26 2:40pm 259 9 G 12 72° 74% - - 63° 75° 61.7° - - -
6/26 2:30pm 257 10 G 13 72° 73% - - 63° 75° 61.7° - - -
6/26 2:20pm 261 10 G 14 72° 74% - - 63° 75° 61.7° - - -
6/26 2:10pm 258 9 G 13 72° 73% - - 63° 75° 61.7° - - -
6/26 2:00pm 251 9 G 12 72° 74% - - 63° 75° 61.7° - - -
6/26 1:50pm 259 9 G 12 72° 73% - - 63° 75° 61.7° - - -
6/26 1:40pm 257 7 G 11 72° 72% - - 62° 75° 61.7° - - -
6/26 1:30pm 262 8 G 12 71° 73% - - 62° 75° 61.7° - - -
6/26 1:20pm 262 8 G 12 71° 73% - - 62° 75° 61.7° - - -
6/26 1:10pm 260 8 G 11 71° 74% - - 62° 75° 61.7° - - -
6/26 1:00pm 250 8 G 11 70° 75% - - 62° 75° 61.7° - - -
6/26 12:50pm 255 11 G 14 70° 76% - - 62° 75° 61.7° - - -
6/26 12:40pm 250 11 G 14 70° 75% - - 62° 75° 61.7° - - -
6/26 12:30pm 249 11 G 14 70° 76% - - 62° 75° 61.7° - - -
6/26 12:20pm 249 12 G 15 70° 77% - - 62° 75° 61.7° - - -
6/26 12:10pm 253 11 G 15 70° 77% - - 62° 75° 61.7° - - -
6/26 12:00pm 245 11 G 15 69° 77% - - 62° 75° 61.7° - - -
6/26 11:50am 240 10 G 15 70° 76% - - 62° 75° 61.7° - - -
6/26 11:40am 236 9 G 14 70° 75% - - 62° 75° 61.7° - - -
6/26 11:30am 247 10 G 14 71° 72% - - 62° 75° 61.7° - - -
6/26 11:20am 249 8 G 11 73° 69% - - 62° 75° 61.7° - - -
6/26 11:10am 251 8 G 12 73° 69% - - 62° 74.4° 61.7° - - -
6/26 11:00am 235 9 G 13 72° 70% - - 62° 73.6° 61.7° - - -
6/26 10:50am 238 9 G 14 72° 71% - - 62° 72.6° 61.7° - - -
6/26 10:40am 239 9 G 13 72° 71% - - 62° 72.6° 61.7° - - -
6/26 10:30am 236 10 G 13 71° 72% - - 62° 72.1° 61.7° - - -
6/26 10:20am 242 10 G 12 71° 73% - - 62° 71.6° 61.7° - - -
6/26 10:10am 239 10 G 13 70° 75% - - 61° 71.6° 61.7° - - -
6/26 10:00am 241 10 G 13 69° 75% - - 61° 71.6° 61.7° - - -
6/26 9:50am 246 11 G 13 70° 74% - - 61° 71.6° 61.7° - - -
6/26 9:40am 247 10 G 13 70° 74% - - 61° 71.6° 61.7° - - -
6/26 9:30am 242 10 G 12 70° 74% - - 61° 71.6° 61.7° - - -
6/26 9:20am 237 9 G 12 70° 73% - - 61° 71.6° 61.7° - - -
6/26 9:10am 233 9 G 12 71° 73% - - 62° 71.6° 61.7° - - -
6/26 9:00am 234 8 G 10 70° 74% - - 62° 71° 61.7° - - -
6/26 8:50am 232 7 G 11 70° 75% - - 62° 70.7° 61.7° - - -
6/26 8:40am 225 7 G 11 67° 81% - - 61° 69.3° 61.7° - - -
6/26 8:30am 230 10 G 14 65° 86% - - 61° 68.8° 61.7° - - -
6/26 8:20am 235 8 G 13 66° 85% - - 62° 68.8° 61.7° - - -
6/26 8:10am 230 7 G 11 66° 87% - - 62° 68.8° 61.7° - - -
6/26 8:00am 235 6 G 8 65° 90% - - 62° 68.8° 61.7° - - -
6/26 7:50am 251 7 G 9 64° 91% - - 62° 68.8° 61.7° - - -
6/26 7:40am 248 6 G 8 64° 91% - - 62° 68.8° 61.7° - - -
6/26 7:30am 260 4 G 6 66° 86% - - 61° 68.8° 61.7° - - -
6/26 7:20am 333 1 G 3 68° 81% - - 62° 68.8° 61.7° - - -
6/26 7:10am 43 2 G 3 68° 81% - - 62° 68.8° 61.7° - - -
6/26 7:00am 63 3 G 4 68° 81% - - 62° 68.8° 61.7° - - -
6/26 6:50am 58 3 G 4 67° 82% - - 62° 68.8° 61.7° - - -
6/26 6:40am 67 3 G 5 67° 82% - - 62° 68.8° 61.7° - - -
6/26 6:30am 69 4 G 5 68° 80% - - 61° 68.8° 61.7° - - -
6/26 6:20am 79 4 G 6 68° 79% - - 62° 68.8° 61.7° - - -
6/26 6:10am 100 5 G 7 68° 81% - - 62° 68.5° 61.7° - - -
6/26 6:00am 99 6 G 7 67° 82% - - 62° 68° 61.7° - - -